Time;durP1;ratioP1;P1;durP2;ratioP2;P2;SDS_P1;SDS_P2;PMS_P1;PMS_P2;Temp;Humidity;BMP_temperature;BMP_pressure;BME280_temperature;BME280_humidity;BME280_pressure;Samples;Min_cycle;Max_cycle;Signal;HPM_P1;HPM_P2
2024/01/29 00:00:36;;;;;;;;;;;;;;;23.27;19.29;100055.75;5095165;28;19965;-80
2024/01/29 00:03:02;;;;;;;;;;;;;;;23.04;19.60;100055.06;5108821;28;19950;-80
2024/01/29 00:05:28;;;;;;;;;;;;;;;22.67;19.42;100052.94;5108708;28;19931;-80
2024/01/29 00:07:54;;;;;;;;;;;;;;;22.28;19.92;100056.28;5097333;28;19930;-80
2024/01/29 00:10:22;;;;;;;;;;;;;;;22.04;20.29;100057.47;5094123;28;19978;-80
2024/01/29 00:12:48;;;;;;;;;;;;;;;22.10;20.45;100043.97;5094373;28;19978;-80
2024/01/29 00:15:14;;;;;;;;;;;;;;;22.06;20.22;100052.28;5093872;28;20022;-80
2024/01/29 00:17:40;;;;;;;;;;;;;;;21.86;20.77;100051.56;5095029;28;19935;-80
2024/01/29 00:20:06;;;;;;;;;;;;;;;21.67;20.90;100045.97;5103094;28;19950;-80
2024/01/29 00:22:32;;;;;;;;;;;;;;;21.65;20.85;100045.53;5105125;28;19942;-80
2024/01/29 00:24:58;;;;;;;;;;;;;;;21.97;20.50;100049.75;5098119;28;19912;-80
2024/01/29 00:27:24;;;;;;;;;;;;;;;22.50;20.36;100042.25;5093909;28;20334;-80
2024/01/29 00:29:50;;;;;;;;;;;;;;;22.68;19.77;100040.53;5092784;28;19939;-81
2024/01/29 00:32:17;;;;;;;;;;;;;;;22.49;20.04;100039.81;5092325;28;19924;-82
2024/01/29 00:34:43;;;;;;;;;;;;;;;22.43;20.54;100035.72;5096667;28;19920;-81
2024/01/29 00:37:09;;;;;;;;;;;;;;;22.64;19.84;100042.50;5110150;28;19916;-81
2024/01/29 00:39:35;;;;;;;;;;;;;;;22.89;19.66;100051.28;5105877;28;19927;-81
2024/01/29 00:42:02;;;;;;;;;;;;;;;22.09;20.40;100050.75;5098357;28;19951;-81
2024/01/29 00:44:28;;;;;;;;;;;;;;;21.26;21.32;100058.72;5100280;28;20019;-81
2024/01/29 00:46:54;;;;;;;;;;;;;;;20.84;21.46;100056.97;5100187;28;19924;-81
2024/01/29 00:49:21;;;;;;;;;;;;;;;20.95;21.94;100080.34;5104847;28;19927;-81
2024/01/29 00:51:47;;;;;;;;;;;;;;;21.71;21.35;100077.59;5101253;28;20042;-81
2024/01/29 00:54:13;;;;;;;;;;;;;;;22.46;20.68;100090.97;5106221;28;19946;-81
2024/01/29 00:56:39;;;;;;;;;;;;;;;22.98;19.49;100091.03;5099443;28;19923;-81
2024/01/29 00:59:05;;;;;;;;;;;;;;;23.09;19.07;100100.38;5100478;28;19928;-81
2024/01/29 01:01:31;;;;;;;;;;;;;;;22.64;19.33;100101.28;5099275;28;19991;-81
2024/01/29 01:03:57;;;;;;;;;;;;;;;22.68;18.97;100113.34;5109474;28;19927;-81
2024/01/29 01:06:24;;;;;;;;;;;;;;;22.84;19.21;100127.22;5104621;28;19924;-81
2024/01/29 01:08:50;;;;;;;;;;;;;;;23.10;18.81;100116.00;5086127;28;19923;-82
2024/01/29 01:11:16;;;;;;;;;;;;;;;23.18;18.77;100114.09;5098121;28;20266;-82
2024/01/29 01:13:42;;;;;;;;;;;;;;;23.40;18.63;100118.03;5097952;28;19995;-82
2024/01/29 01:16:09;;;;;;;;;;;;;;;23.53;18.18;100113.78;5100208;27;19920;-81
2024/01/29 01:18:35;;;;;;;;;;;;;;;23.36;18.25;100118.78;5112722;27;19920;-81
2024/01/29 01:21:01;;;;;;;;;;;;;;;23.13;19.25;100115.22;5108211;27;19960;-81
2024/01/29 01:23:27;;;;;;;;;;;;;;;23.16;19.17;100119.28;5105029;28;19920;-80
2024/01/29 01:25:53;;;;;;;;;;;;;;;23.26;19.12;100110.22;5109073;27;19923;-81
2024/01/29 01:28:19;;;;;;;;;;;;;;;23.44;19.14;100100.06;5096090;28;19920;-81
2024/01/29 01:30:45;;;;;;;;;;;;;;;23.22;19.16;100104.56;5102660;28;19931;-81
2024/01/29 01:33:11;;;;;;;;;;;;;;;23.19;18.71;100104.50;5099410;27;19920;-82
2024/01/29 01:35:37;;;;;;;;;;;;;;;23.28;18.63;100099.44;5108562;27;19966;-82
2024/01/29 01:38:03;;;;;;;;;;;;;;;23.26;18.48;100104.63;5107381;27;19915;-81
2024/01/29 01:40:29;;;;;;;;;;;;;;;23.22;19.06;100096.13;5108319;27;20287;-82
2024/01/29 01:42:55;;;;;;;;;;;;;;;23.30;18.87;100102.66;5110015;27;19954;-82
2024/01/29 01:45:21;;;;;;;;;;;;;;;23.46;18.34;100086.47;5105788;28;20014;-82
2024/01/29 01:47:47;;;;;;;;;;;;;;;23.38;18.63;100087.59;5101776;27;19920;-81
2024/01/29 01:50:14;;;;;;;;;;;;;;;23.35;18.44;100080.75;5105828;27;20364;-82
2024/01/29 01:52:40;;;;;;;;;;;;;;;23.46;18.82;100077.25;5104600;27;19919;-82
2024/01/29 01:55:06;;;;;;;;;;;;;;;23.38;18.67;100088.38;5105351;28;20372;-82
2024/01/29 01:57:33;;;;;;;;;;;;;;;23.22;19.14;100081.34;5111039;28;20334;-81
2024/01/29 01:59:59;;;;;;;;;;;;;;;23.02;19.35;100086.25;5099208;28;20377;-82
2024/01/29 02:02:25;;;;;;;;;;;;;;;23.36;19.12;100064.75;5106864;27;19973;-81
2024/01/29 02:04:51;;;;;;;;;;;;;;;23.31;18.71;100073.44;5096564;27;19930;-82
2024/01/29 02:07:17;;;;;;;;;;;;;;;23.20;18.65;100072.47;5108684;28;20307;-82
2024/01/29 02:09:43;;;;;;;;;;;;;;;23.10;18.50;100078.78;5092668;28;19922;-82
2024/01/29 02:12:10;;;;;;;;;;;;;;;23.12;18.67;100080.00;5110436;28;19967;-81
2024/01/29 02:14:36;;;;;;;;;;;;;;;23.20;18.44;100081.72;5096094;27;20014;-82
2024/01/29 02:17:02;;;;;;;;;;;;;;;23.33;18.03;100071.88;5097020;27;19920;-82
2024/01/29 02:19:28;;;;;;;;;;;;;;;23.02;18.17;100075.06;5100430;27;20370;-82
2024/01/29 02:21:54;;;;;;;;;;;;;;;23.11;18.22;100066.34;5098281;27;19924;-82
2024/01/29 02:24:20;;;;;;;;;;;;;;;23.25;18.46;100064.56;5108017;28;20265;-82
2024/01/29 02:26:47;;;;;;;;;;;;;;;23.36;17.97;100073.16;5098682;28;19924;-82
2024/01/29 02:29:13;;;;;;;;;;;;;;;23.45;17.75;100078.47;5114109;28;19926;-82
2024/01/29 02:31:39;;;;;;;;;;;;;;;23.31;17.54;100079.84;5102568;28;19952;-82
2024/01/29 02:34:05;;;;;;;;;;;;;;;22.86;18.08;100080.03;5109845;28;19928;-82
2024/01/29 02:36:31;;;;;;;;;;;;;;;23.00;17.63;100071.84;5110700;28;19920;-82
2024/01/29 02:38:57;;;;;;;;;;;;;;;22.95;17.81;100074.16;5102632;28;19989;-81
2024/01/29 02:41:23;;;;;;;;;;;;;;;23.07;17.87;100069.13;5096690;28;20309;-81
2024/01/29 02:43:50;;;;;;;;;;;;;;;23.21;17.77;100068.50;5105671;27;20301;-81
2024/01/29 02:46:18;;;;;;;;;;;;;;;22.63;17.88;100065.28;5101233;28;19943;-81
2024/01/29 02:48:44;;;;;;;;;;;;;;;22.59;17.89;100070.00;5107216;28;20384;-81
2024/01/29 02:51:10;;;;;;;;;;;;;;;22.67;17.92;100066.13;5099821;27;19963;-81
2024/01/29 02:53:36;;;;;;;;;;;;;;;22.83;18.55;100063.16;5109327;27;19920;-81
2024/01/29 02:56:02;;;;;;;;;;;;;;;22.95;17.76;100069.34;5107042;27;19920;-80
2024/01/29 02:58:29;;;;;;;;;;;;;;;22.62;18.16;100064.47;5095674;28;20475;-81
2024/01/29 03:00:55;;;;;;;;;;;;;;;22.68;17.62;100071.34;5108657;28;19920;-81
2024/01/29 03:03:21;;;;;;;;;;;;;;;22.60;18.16;100064.03;5100250;27;19920;-81
2024/01/29 03:05:47;;;;;;;;;;;;;;;22.81;18.30;100062.72;5095482;28;19922;-81
2024/01/29 03:08:13;;;;;;;;;;;;;;;23.01;17.87;100067.03;5102953;27;19923;-81
2024/01/29 03:10:39;;;;;;;;;;;;;;;23.01;18.25;100062.22;5108135;28;20341;-81
2024/01/29 03:13:06;;;;;;;;;;;;;;;23.07;17.68;100068.31;5100857;27;20384;-81
2024/01/29 03:15:32;;;;;;;;;;;;;;;23.06;17.45;100064.69;5097133;28;19928;-81
2024/01/29 03:17:58;;;;;;;;;;;;;;;22.88;17.83;100066.44;5105958;28;19924;-81
2024/01/29 03:20:24;;;;;;;;;;;;;;;22.86;18.20;100068.81;5099953;28;20346;-80
2024/01/29 03:22:50;;;;;;;;;;;;;;;22.89;17.83;100059.69;5099640;28;19916;-80
2024/01/29 03:25:16;;;;;;;;;;;;;;;22.95;17.93;100060.13;5093834;28;19928;-81
2024/01/29 03:27:42;;;;;;;;;;;;;;;22.99;17.42;100067.41;5094311;28;19920;-80
2024/01/29 03:30:08;;;;;;;;;;;;;;;23.04;17.43;100075.47;5094576;28;19927;-80
2024/01/29 03:32:34;;;;;;;;;;;;;;;22.71;17.37;100080.19;5098351;28;19931;-80
2024/01/29 03:35:00;;;;;;;;;;;;;;;22.86;17.37;100077.22;5104455;28;19920;-80
2024/01/29 03:37:27;;;;;;;;;;;;;;;22.91;17.36;100090.09;5102116;28;19916;-80
2024/01/29 03:39:53;;;;;;;;;;;;;;;22.92;17.02;100081.31;5093836;28;20018;-80
2024/01/29 03:42:19;;;;;;;;;;;;;;;22.87;17.14;100070.41;5093809;28;20377;-79
2024/01/29 03:44:45;;;;;;;;;;;;;;;22.83;17.56;100068.75;5103418;27;19941;-80
2024/01/29 03:47:11;;;;;;;;;;;;;;;22.69;17.78;100063.75;5101542;28;19924;-80
2024/01/29 03:49:37;;;;;;;;;;;;;;;22.43;18.05;100061.72;5106126;28;20028;-80
2024/01/29 03:52:03;;;;;;;;;;;;;;;22.31;18.57;100061.13;5091827;28;20367;-81
2024/01/29 03:54:29;;;;;;;;;;;;;;;22.22;18.38;100061.38;5103609;28;19934;-80
2024/01/29 03:56:55;;;;;;;;;;;;;;;22.41;18.51;100055.69;5105867;28;19920;-80
2024/01/29 03:59:21;;;;;;;;;;;;;;;22.57;17.94;100056.34;5104897;28;19926;-81
2024/01/29 04:01:48;;;;;;;;;;;;;;;22.73;18.13;100055.44;5113618;28;19916;-80
2024/01/29 04:04:14;;;;;;;;;;;;;;;22.87;18.08;100047.22;5085396;28;19926;-80
2024/01/29 04:06:40;;;;;;;;;;;;;;;22.28;18.46;100045.91;5095839;28;20430;-80
2024/01/29 04:09:09;;;;;;;;;;;;;;;22.41;18.46;100047.28;5096296;28;20426;-80
2024/01/29 04:11:36;;;;;;;;;;;;;;;22.49;18.51;100043.44;5113345;28;20384;-81
2024/01/29 04:14:02;;;;;;;;;;;;;;;22.46;18.32;100041.38;5104994;28;19988;-80
2024/01/29 04:16:28;;;;;;;;;;;;;;;22.41;18.22;100036.09;5105059;28;20022;-81
2024/01/29 04:18:54;;;;;;;;;;;;;;;22.58;17.98;100038.38;5112260;28;19931;-81
2024/01/29 04:21:20;;;;;;;;;;;;;;;22.62;18.03;100033.66;5105070;28;19916;-81
2024/01/29 04:23:46;;;;;;;;;;;;;;;22.59;18.37;100037.19;5098403;28;19923;-81
2024/01/29 04:26:12;;;;;;;;;;;;;;;22.78;17.73;100032.69;5100001;28;19920;-81
2024/01/29 04:28:38;;;;;;;;;;;;;;;22.95;17.51;100026.53;5093395;28;20011;-81
2024/01/29 04:31:04;;;;;;;;;;;;;;;23.04;17.06;100027.84;5093436;28;20023;-81
2024/01/29 04:33:30;;;;;;;;;;;;;;;22.98;16.86;100023.78;5080620;28;19924;-80
2024/01/29 04:35:56;;;;;;;;;;;;;;;22.99;17.17;100028.19;5113583;28;19916;-82
2024/01/29 04:38:22;;;;;;;;;;;;;;;23.02;16.87;100013.41;5094999;28;19915;-80
2024/01/29 04:40:48;;;;;;;;;;;;;;;23.01;17.21;100008.22;5081557;28;19920;-81
2024/01/29 04:43:15;;;;;;;;;;;;;;;22.85;17.61;100013.97;5092676;28;19924;-80
2024/01/29 04:45:41;;;;;;;;;;;;;;;22.45;17.36;100014.56;5100482;28;19927;-80
2024/01/29 04:48:08;;;;;;;;;;;;;;;22.40;17.54;100011.31;5101818;28;19919;-80
2024/01/29 04:50:34;;;;;;;;;;;;;;;22.54;17.59;100009.50;5102403;27;19927;-80
2024/01/29 04:53:00;;;;;;;;;;;;;;;22.64;17.48;100014.50;5113372;28;20010;-80
2024/01/29 04:55:26;;;;;;;;;;;;;;;22.68;17.53;100011.75;5103553;28;20334;-80
2024/01/29 04:57:52;;;;;;;;;;;;;;;22.47;17.73;100009.44;5107628;28;20018;-81
2024/01/29 05:00:18;;;;;;;;;;;;;;;22.49;18.10;100006.25;5117651;28;19923;-81
2024/01/29 05:02:44;;;;;;;;;;;;;;;22.43;17.97;100016.13;5107237;28;20303;-81
2024/01/29 05:05:10;;;;;;;;;;;;;;;22.32;18.05;100018.78;5109554;27;19920;-81
2024/01/29 05:07:36;;;;;;;;;;;;;;;22.23;18.28;100015.44;5108937;28;19927;-82
2024/01/29 05:10:02;;;;;;;;;;;;;;;22.42;18.08;100009.75;5110600;28;19920;-82
2024/01/29 05:12:28;;;;;;;;;;;;;;;22.71;17.80;100010.19;5106276;28;19967;-82
2024/01/29 05:14:54;;;;;;;;;;;;;;;22.79;17.35;100006.28;5106240;28;19974;-82
2024/01/29 05:17:20;;;;;;;;;;;;;;;22.77;17.09;100009.47;5110567;27;19920;-82
2024/01/29 05:19:47;;;;;;;;;;;;;;;22.58;17.25;100009.56;5105046;27;19928;-82
2024/01/29 05:22:13;;;;;;;;;;;;;;;22.36;17.17;100013.22;5103334;28;19931;-81
2024/01/29 05:24:40;;;;;;;;;;;;;;;22.30;17.11;100007.16;5108694;28;19915;-80
2024/01/29 05:27:06;;;;;;;;;;;;;;;22.39;17.11;100004.88;5108584;28;19945;-82
2024/01/29 05:29:32;;;;;;;;;;;;;;;22.30;17.90;100015.53;5094789;28;19927;-82
2024/01/29 05:31:58;;;;;;;;;;;;;;;22.48;17.31;100013.81;5108669;27;19951;-81
2024/01/29 05:34:24;;;;;;;;;;;;;;;22.35;17.81;100015.22;5104683;28;20010;-81
2024/01/29 05:36:50;;;;;;;;;;;;;;;22.49;17.09;100011.84;5102967;28;19920;-80
2024/01/29 05:39:16;;;;;;;;;;;;;;;22.39;17.37;100013.28;5101571;27;19932;-80
2024/01/29 05:41:42;;;;;;;;;;;;;;;22.42;17.37;100009.75;5103639;28;20589;-80
2024/01/29 05:44:09;;;;;;;;;;;;;;;22.26;17.28;100011.88;5108883;27;19920;-80
2024/01/29 05:46:35;;;;;;;;;;;;;;;22.31;17.47;100007.97;5100593;28;19923;-79
2024/01/29 05:49:01;;;;;;;;;;;;;;;22.40;17.39;100012.13;5110261;28;20018;-79
2024/01/29 05:51:28;;;;;;;;;;;;;;;22.60;17.39;100022.03;5103748;28;19920;-80
2024/01/29 05:53:54;;;;;;;;;;;;;;;22.67;17.47;100010.94;5099420;27;19930;-80
2024/01/29 05:56:20;;;;;;;;;;;;;;;22.74;17.11;100021.44;5103556;28;20402;-81
2024/01/29 05:58:46;;;;;;;;;;;;;;;22.62;16.70;100025.25;5105075;28;19920;-81
2024/01/29 06:01:12;;;;;;;;;;;;;;;22.52;17.03;100034.28;5099244;28;19920;-82
2024/01/29 06:03:38;;;;;;;;;;;;;;;22.72;16.78;100034.19;5099037;28;19920;-81
2024/01/29 06:06:05;;;;;;;;;;;;;;;22.23;17.24;100042.59;5099981;28;19931;-80
2024/01/29 06:08:32;;;;;;;;;;;;;;;21.76;18.15;100040.94;5114410;28;19920;-79
2024/01/29 06:10:58;;;;;;;;;;;;;;;21.80;18.48;100043.78;5111097;28;19968;-79
2024/01/29 06:13:24;;;;;;;;;;;;;;;22.00;18.26;100045.41;5114089;28;19935;-79
2024/01/29 06:15:50;;;;;;;;;;;;;;;22.16;18.24;100046.09;5103713;28;19927;-79
2024/01/29 06:18:16;;;;;;;;;;;;;;;22.34;18.03;100051.97;5095272;27;20373;-79
2024/01/29 06:20:42;;;;;;;;;;;;;;;22.05;18.17;100055.47;5103896;28;20411;-80
2024/01/29 06:23:09;;;;;;;;;;;;;;;21.87;18.40;100052.34;5103047;28;20383;-79
2024/01/29 06:25:35;;;;;;;;;;;;;;;21.89;18.57;100059.19;5106375;28;20371;-79
2024/01/29 06:28:02;;;;;;;;;;;;;;;22.22;18.13;100069.75;5095590;28;19916;-79
2024/01/29 06:30:28;;;;;;;;;;;;;;;22.48;17.53;100063.41;5095072;28;19920;-79
2024/01/29 06:32:54;;;;;;;;;;;;;;;22.60;17.25;100068.78;5099482;28;19924;-79
2024/01/29 06:35:22;;;;;;;;;;;;;;;22.72;17.24;100067.81;5101536;28;20262;-80
2024/01/29 06:37:48;;;;;;;;;;;;;;;22.78;17.12;100060.72;5101208;28;19928;-78
2024/01/29 06:40:14;;;;;;;;;;;;;;;22.81;16.83;100071.13;5095905;28;20019;-79
2024/01/29 06:42:40;;;;;;;;;;;;;;;22.89;16.82;100072.88;5096078;28;20289;-80
2024/01/29 06:45:07;;;;;;;;;;;;;;;22.79;16.56;100065.09;5095282;28;20292;-80
2024/01/29 06:47:33;;;;;;;;;;;;;;;22.48;16.80;100058.59;5096197;28;19916;-80
2024/01/29 06:49:59;;;;;;;;;;;;;;;22.36;17.01;100063.59;5098729;28;20061;-80
2024/01/29 06:52:26;;;;;;;;;;;;;;;22.40;17.02;100067.28;5108936;28;19927;-80
2024/01/29 06:54:52;;;;;;;;;;;;;;;22.57;17.02;100067.53;5095385;28;19923;-80
2024/01/29 06:57:18;;;;;;;;;;;;;;;22.69;17.04;100063.75;5094497;28;19920;-79
2024/01/29 06:59:44;;;;;;;;;;;;;;;22.72;16.89;100063.00;5097296;28;19920;-79
2024/01/29 07:02:10;;;;;;;;;;;;;;;22.71;17.04;100057.81;5094060;28;19920;-79
2024/01/29 07:04:36;;;;;;;;;;;;;;;22.23;17.20;100056.59;5102767;28;19955;-80
2024/01/29 07:07:03;;;;;;;;;;;;;;;22.43;17.21;100050.53;5110798;27;19927;-80
2024/01/29 07:09:31;;;;;;;;;;;;;;;22.23;17.46;100063.00;5100103;27;19920;-80
2024/01/29 07:11:57;;;;;;;;;;;;;;;22.51;17.24;100057.06;5097779;28;20347;-79
2024/01/29 07:14:23;;;;;;;;;;;;;;;22.85;17.07;100055.22;5099031;28;19927;-79
2024/01/29 07:16:49;;;;;;;;;;;;;;;23.09;17.44;100063.13;5094100;28;19958;-79
2024/01/29 07:19:22;;;;;;;;;;;;;;;23.06;16.99;100058.28;5095413;27;20026;-79
2024/01/29 07:21:50;;;;;;;;;;;;;;;22.90;17.67;100057.66;5094250;28;19920;-78
2024/01/29 07:24:17;;;;;;;;;;;;;;;22.81;17.80;100057.94;5095266;28;20093;-78
2024/01/29 07:26:43;;;;;;;;;;;;;;;22.93;17.84;100068.13;5100159;28;19920;-78
2024/01/29 07:29:09;;;;;;;;;;;;;;;23.01;17.71;100062.22;5113502;28;20280;-79
2024/01/29 07:31:35;;;;;;;;;;;;;;;23.20;17.60;100058.47;5108176;28;19988;-79
2024/01/29 07:34:01;;;;;;;;;;;;;;;23.30;17.50;100057.81;5101906;28;19921;-79
2024/01/29 07:36:27;;;;;;;;;;;;;;;23.38;17.42;100060.34;5108294;28;19926;-79
2024/01/29 07:38:53;;;;;;;;;;;;;;;23.55;17.23;100067.34;5109235;28;20319;-79
2024/01/29 07:41:19;;;;;;;;;;;;;;;23.66;17.48;100065.50;5113286;28;20380;-79
2024/01/29 07:43:46;;;;;;;;;;;;;;;23.34;17.61;100059.50;5105946;28;19959;-78
2024/01/29 07:46:12;;;;;;;;;;;;;;;23.33;17.76;100057.06;5106502;28;19926;-79
2024/01/29 07:48:38;;;;;;;;;;;;;;;23.20;18.15;100061.28;5111545;28;19920;-79
2024/01/29 07:51:04;;;;;;;;;;;;;;;22.81;18.51;100057.13;5112874;28;19970;-79
2024/01/29 07:53:30;;;;;;;;;;;;;;;22.87;18.85;100048.00;5102076;28;19919;-79
2024/01/29 07:55:59;;;;;;;;;;;;;;;23.11;18.42;100046.75;5109111;28;19927;-79
2024/01/29 07:58:25;;;;;;;;;;;;;;;22.82;19.02;100034.38;5111813;28;20010;-79
2024/01/29 08:00:51;;;;;;;;;;;;;;;22.93;19.16;100032.50;5112724;28;19915;-79
2024/01/29 08:03:17;;;;;;;;;;;;;;;23.18;18.85;100028.03;5107609;28;19959;-79
2024/01/29 08:05:43;;;;;;;;;;;;;;;23.19;19.13;100026.03;5100935;28;19923;-79
2024/01/29 08:08:09;;;;;;;;;;;;;;;23.19;19.02;100026.88;5097098;28;19924;-79
2024/01/29 08:10:35;;;;;;;;;;;;;;;23.32;19.27;100024.59;5107363;28;20453;-79
2024/01/29 08:13:01;;;;;;;;;;;;;;;23.52;19.34;100023.28;5112636;28;20312;-79
2024/01/29 08:15:29;;;;;;;;;;;;;;;23.46;19.38;100021.19;5111622;28;19934;-79
2024/01/29 08:17:55;;;;;;;;;;;;;;;23.47;19.70;100025.59;5101711;28;19919;-79
2024/01/29 08:20:22;;;;;;;;;;;;;;;23.25;20.21;100027.31;5102544;28;20025;-80
2024/01/29 08:22:48;;;;;;;;;;;;;;;22.87;20.45;100027.63;5110967;28;19919;-79
2024/01/29 08:25:14;;;;;;;;;;;;;;;22.84;20.74;100032.00;5107609;28;19943;-79
2024/01/29 08:27:40;;;;;;;;;;;;;;;23.29;20.39;100023.38;5092806;28;20307;-80
2024/01/29 08:30:07;;;;;;;;;;;;;;;23.50;20.11;100027.66;5108632;28;20377;-79
2024/01/29 08:32:33;;;;;;;;;;;;;;;22.23;21.02;100037.81;5107037;28;20609;-79
2024/01/29 08:34:59;;;;;;;;;;;;;;;21.89;22.21;100033.22;5108384;28;19957;-79
2024/01/29 08:37:25;;;;;;;;;;;;;;;21.75;21.82;100032.94;5108738;28;19924;-79
2024/01/29 08:39:51;;;;;;;;;;;;;;;21.84;22.41;100039.13;5107425;28;20280;-78
2024/01/29 08:42:17;;;;;;;;;;;;;;;22.26;21.93;100045.47;5097587;28;19931;-79
2024/01/29 08:44:46;;;;;;;;;;;;;;;22.61;21.89;100034.06;5094916;28;20224;-79
2024/01/29 08:47:12;;;;;;;;;;;;;;;22.58;21.92;100038.38;5111638;28;19966;-79
2024/01/29 08:49:38;;;;;;;;;;;;;;;22.32;22.20;100035.56;5112293;28;19916;-79
2024/01/29 08:52:04;;;;;;;;;;;;;;;21.98;21.73;100042.19;5101841;28;20368;-78
2024/01/29 08:54:30;;;;;;;;;;;;;;;21.03;22.92;100054.19;5108944;28;19924;-79
2024/01/29 08:56:56;;;;;;;;;;;;;;;21.21;23.43;100059.00;5107390;28;20364;-79
2024/01/29 08:59:22;;;;;;;;;;;;;;;21.83;22.61;100060.66;5089351;28;19926;-79
2024/01/29 09:01:48;;;;;;;;;;;;;;;22.61;22.34;100065.63;5096485;28;19920;-79
2024/01/29 09:04:15;;;;;;;;;;;;;;;21.95;21.66;100065.28;5096775;28;20006;-78
2024/01/29 09:06:41;;;;;;;;;;;;;;;22.57;21.74;100066.72;5106817;28;19920;-78
2024/01/29 09:09:07;;;;;;;;;;;;;;;22.65;21.19;100060.91;5093413;28;20342;-78
2024/01/29 09:11:33;;;;;;;;;;;;;;;22.08;22.27;100069.50;5098952;28;19920;-78
2024/01/29 09:13:59;;;;;;;;;;;;;;;22.74;21.33;100068.22;5092842;28;19970;-78
2024/01/29 09:16:25;;;;;;;;;;;;;;;23.40;20.82;100065.59;5097880;28;19931;-78
2024/01/29 09:18:51;;;;;;;;;;;;;;;23.73;20.40;100057.16;5095592;28;19924;-78
2024/01/29 09:21:17;;;;;;;;;;;;;;;23.68;20.83;100062.31;5096344;28;19977;-78
2024/01/29 09:23:43;;;;;;;;;;;;;;;23.56;21.05;100068.97;5099722;28;20018;-78
2024/01/29 09:26:09;;;;;;;;;;;;;;;23.85;20.75;100068.09;5103915;28;19916;-78
2024/01/29 09:28:37;;;;;;;;;;;;;;;23.86;20.83;100072.53;5092715;28;20014;-78
2024/01/29 09:31:04;;;;;;;;;;;;;;;22.91;21.74;100071.31;5097415;28;20018;-78
2024/01/29 09:33:30;;;;;;;;;;;;;;;23.16;21.33;100080.84;5098331;28;19927;-78
2024/01/29 09:35:56;;;;;;;;;;;;;;;23.63;20.84;100069.06;5110874;28;19951;-78
2024/01/29 09:38:22;;;;;;;;;;;;;;;24.17;20.17;100071.25;5103402;28;20381;-78
2024/01/29 09:40:48;;;;;;;;;;;;;;;24.15;20.17;100065.22;5100629;27;20397;-78
2024/01/29 09:43:16;;;;;;;;;;;;;;;23.41;20.79;100060.78;5106904;28;19958;-78
2024/01/29 09:45:42;;;;;;;;;;;;;;;23.79;20.90;100066.84;5097716;28;19924;-78
2024/01/29 09:48:11;;;;;;;;;;;;;;;24.03;21.00;100059.88;5106714;28;19920;-77
2024/01/29 09:50:39;;;;;;;;;;;;;;;23.57;20.77;100055.78;5101863;27;19916;-78
2024/01/29 09:53:06;;;;;;;;;;;;;;;23.43;21.17;100058.41;5113356;28;19924;-78
2024/01/29 09:55:32;;;;;;;;;;;;;;;22.75;21.58;100067.06;5106931;28;20010;-78
2024/01/29 09:57:58;;;;;;;;;;;;;;;23.64;20.81;100067.84;5096785;27;19920;-78
2024/01/29 10:00:24;;;;;;;;;;;;;;;24.46;20.17;100064.69;5101211;28;19932;-78
2024/01/29 10:02:53;;;;;;;;;;;;;;;24.40;20.36;100059.81;5099240;27;19971;-78
2024/01/29 10:05:19;;;;;;;;;;;;;;;24.42;20.00;100061.06;5096377;28;19920;-78
2024/01/29 10:07:45;;;;;;;;;;;;;;;24.86;20.04;100052.56;5096119;28;20038;-77
2024/01/29 10:10:11;;;;;;;;;;;;;;;25.21;19.40;100054.75;5094539;28;19920;-78
2024/01/29 10:12:37;;;;;;;;;;;;;;;25.32;19.76;100053.59;5094568;27;20014;-77
2024/01/29 10:15:04;;;;;;;;;;;;;;;25.79;19.12;100049.78;5092755;28;19924;-77
2024/01/29 10:17:30;;;;;;;;;;;;;;;25.19;19.47;100052.34;5093640;28;19920;-77
2024/01/29 10:19:56;;;;;;;;;;;;;;;24.96;20.34;100042.59;5098045;28;19965;-77
2024/01/29 10:22:26;;;;;;;;;;;;;;;25.44;19.90;100041.22;5095220;28;20011;-78
2024/01/29 10:25:02;;;;;;;;;;;;;;;25.86;19.59;100037.72;5081908;28;19920;-78
2024/01/29 10:27:28;;;;;;;;;;;;;;;25.80;19.80;100026.06;5103366;27;19920;-79
2024/01/29 10:29:55;;;;;;;;;;;;;;;25.43;19.72;100031.16;5097303;27;19924;-79
2024/01/29 10:32:21;;;;;;;;;;;;;;;24.68;20.08;100034.75;5096229;28;19920;-78
2024/01/29 10:34:48;;;;;;;;;;;;;;;25.08;20.01;100026.19;5095189;27;19924;-78
2024/01/29 10:37:17;;;;;;;;;;;;;;;24.92;20.46;100033.34;5105418;28;20568;-78
2024/01/29 10:39:43;;;;;;;;;;;;;;;25.63;19.48;100026.81;5106827;27;19920;-78
2024/01/29 10:42:11;;;;;;;;;;;;;;;25.81;19.37;100022.03;5112418;28;19927;-78
2024/01/29 10:44:37;;;;;;;;;;;;;;;25.73;18.99;100016.78;5098174;27;19924;-78
2024/01/29 10:47:07;;;;;;;;;;;;;;;25.69;19.54;100018.81;5100010;27;20320;-78
2024/01/29 10:49:34;;;;;;;;;;;;;;;25.94;19.34;100019.66;5104229;27;19924;-79
2024/01/29 10:52:02;;;;;;;;;;;;;;;26.37;18.61;100018.47;5104491;27;19916;-79
2024/01/29 10:54:31;;;;;;;;;;;;;;;26.01;19.83;100011.22;5099513;28;20389;-78
2024/01/29 10:56:58;;;;;;;;;;;;;;;26.64;18.45;100016.84;5104698;28;19920;-79
2024/01/29 10:59:25;;;;;;;;;;;;;;;25.41;19.73;100014.66;5108300;28;19920;-78
2024/01/29 11:01:52;;;;;;;;;;;;;;;24.72;20.18;100010.28;5095746;28;20388;-79
2024/01/29 11:04:20;;;;;;;;;;;;;;;24.99;19.56;100011.69;5094973;27;19922;-78
2024/01/29 11:06:59;;;;;;;;;;;;;;;25.02;20.18;99999.66;5080615;28;20291;-78
2024/01/29 11:09:27;;;;;;;;;;;;;;;24.51;19.70;99999.72;5097689;28;19963;-79
2024/01/29 11:11:54;;;;;;;;;;;;;;;25.35;20.61;99999.38;5080737;27;19928;-79
2024/01/29 11:14:21;;;;;;;;;;;;;;;25.30;19.75;99996.97;5101927;27;19924;-78
2024/01/29 11:16:47;;;;;;;;;;;;;;;24.24;20.20;100003.16;5100584;28;19995;-79
2024/01/29 11:19:15;;;;;;;;;;;;;;;24.59;19.80;99994.97;5095643;27;20335;-79
2024/01/29 11:21:49;;;;;;;;;;;;;;;25.02;20.56;99994.03;5097844;27;19926;-78
2024/01/29 11:24:16;;;;;;;;;;;;;;;25.73;20.14;99995.09;5095698;28;20423;-79
2024/01/29 11:26:42;;;;;;;;;;;;;;;25.92;20.37;99986.28;5096372;27;19928;-79
2024/01/29 11:29:10;;;;;;;;;;;;;;;25.80;19.54;99989.47;5100843;28;20359;-79
2024/01/29 11:31:40;;;;;;;;;;;;;;;25.72;19.11;99992.69;5114491;28;19970;-78
2024/01/29 11:34:06;;;;;;;;;;;;;;;25.84;20.44;99990.28;5108390;28;19920;-79
2024/01/29 11:36:36;;;;;;;;;;;;;;;25.61;19.66;99987.03;5100578;28;19974;-79
2024/01/29 11:39:03;;;;;;;;;;;;;;;25.74;20.76;99985.44;5097889;28;19969;-79
2024/01/29 11:41:30;;;;;;;;;;;;;;;25.36;20.04;99989.75;5104753;28;19927;-79
2024/01/29 11:43:57;;;;;;;;;;;;;;;25.15;19.58;99981.25;5082841;28;19924;-79
2024/01/29 11:46:26;;;;;;;;;;;;;;;25.83;19.30;99976.63;5086574;28;19920;-79
2024/01/29 11:48:56;;;;;;;;;;;;;;;26.49;19.98;99978.63;5081878;28;20381;-79
2024/01/29 11:51:23;;;;;;;;;;;;;;;27.02;19.93;99974.91;5082542;28;20345;-79
2024/01/29 11:53:52;;;;;;;;;;;;;;;27.21;19.74;99965.94;5084621;28;20389;-79
2024/01/29 11:56:18;;;;;;;;;;;;;;;27.13;18.83;99967.19;5084680;28;19927;-79
2024/01/29 11:58:44;;;;;;;;;;;;;;;26.87;19.62;99962.84;5092655;28;19920;-79
2024/01/29 12:01:10;;;;;;;;;;;;;;;26.87;19.05;99962.84;5078953;28;19932;-80
2024/01/29 12:03:38;;;;;;;;;;;;;;;26.65;19.57;99970.53;5090478;28;20019;-80
2024/01/29 12:06:05;;;;;;;;;;;;;;;26.18;19.04;99968.22;5089184;28;19920;-79
2024/01/29 12:08:31;;;;;;;;;;;;;;;26.87;18.17;99967.69;5074028;28;19942;-79
2024/01/29 12:10:58;;;;;;;;;;;;;;;26.58;19.14;99966.94;5074108;28;19920;-79
2024/01/29 12:13:24;;;;;;;;;;;;;;;27.03;19.48;99966.00;5083492;28;20108;-79
2024/01/29 12:15:52;;;;;;;;;;;;;;;26.48;20.44;99962.13;5081088;28;19927;-79
2024/01/29 12:18:21;;;;;;;;;;;;;;;26.95;18.66;99972.91;5078787;28;19963;-80
2024/01/29 12:20:47;;;;;;;;;;;;;;;27.19;19.46;99974.81;5076367;28;19966;-80
2024/01/29 12:23:13;;;;;;;;;;;;;;;27.15;18.51;99961.94;5092945;28;20010;-80
2024/01/29 12:25:39;;;;;;;;;;;;;;;26.95;17.82;99969.28;5085355;28;19921;-80
2024/01/29 12:28:09;;;;;;;;;;;;;;;26.90;18.23;99964.88;5081931;28;19923;-79
2024/01/29 12:30:35;;;;;;;;;;;;;;;26.91;19.64;99963.66;5064642;28;20308;-80
2024/01/29 12:33:02;;;;;;;;;;;;;;;26.82;19.88;99966.09;5080339;28;19921;-79